Time;durP1;ratioP1;P1;durP2;ratioP2;P2;SDS_P1;SDS_P2;PMS_P1;PMS_P2;Temp;Humidity;BMP_temperature;BMP_pressure;BME280_temperature;BME280_humidity;BME280_pressure;Samples;Min_cycle;Max_cycle;Signal;HPM_P1;HPM_P2
2023/01/10 00:01:04;;;;;;;;;;;;;;;8.75;82.59;99121.41;5394304;32;35268;-70
2023/01/10 00:04:06;;;;;;;;;;;;;;;9.13;80.81;99118.56;5373080;32;33192;-71
2023/01/10 00:07:07;;;;;;;;;;;;;;;9.09;80.25;99117.03;5387425;32;33764;-81
2023/01/10 00:10:09;;;;;;;;;;;;;;;9.57;76.83;99105.66;5392132;32;34017;-87
2023/01/10 00:13:24;;;;;;;;;;;;;;;8.86;80.78;99116.47;5381988;32;33831;-88
2023/01/10 00:16:25;;;;;;;;;;;;;;;8.56;82.46;99118.03;5394671;32;44482;-70
2023/01/10 00:19:28;;;;;;;;;;;;;;;9.43;78.56;99114.28;5370603;32;33513;-89
2023/01/10 00:22:29;;;;;;;;;;;;;;;8.90;80.56;99109.28;5397441;32;32820;-70
2023/01/10 00:25:33;;;;;;;;;;;;;;;8.30;85.67;99114.06;5383000;32;32952;-89
2023/01/10 00:28:35;;;;;;;;;;;;;;;8.76;81.88;99110.03;5383987;32;34253;-88
2023/01/10 00:31:37;;;;;;;;;;;;;;;8.83;82.06;99113.16;5397325;32;33965;-89
2023/01/10 00:34:39;;;;;;;;;;;;;;;8.20;84.59;99107.63;5382891;32;34131;-71
2023/01/10 00:37:41;;;;;;;;;;;;;;;8.14;83.81;99093.06;5393886;32;33538;-89
2023/01/10 00:40:43;;;;;;;;;;;;;;;7.78;86.25;99085.25;5383292;32;33779;-88
2023/01/10 00:43:57;;;;;;;;;;;;;;;7.69;87.23;99101.37;5394459;32;33713;-71
2023/01/10 00:46:59;;;;;;;;;;;;;;;7.99;85.76;99097.28;5387996;32;34474;-89
2023/01/10 00:50:03;;;;;;;;;;;;;;;8.49;84.70;99091.31;5384446;32;35321;-70
2023/01/10 00:53:05;;;;;;;;;;;;;;;8.23;85.57;99104.84;5379369;32;34697;-69
2023/01/10 00:56:07;;;;;;;;;;;;;;;8.81;82.74;99102.75;5382062;32;33547;-89
2023/01/10 00:59:09;;;;;;;;;;;;;;;8.36;83.18;99098.94;5397770;32;33781;-88
2023/01/10 01:02:10;;;;;;;;;;;;;;;7.68;87.00;99107.53;5385762;32;33739;-89
2023/01/10 01:05:12;;;;;;;;;;;;;;;7.64;89.30;99105.97;5397040;32;34237;-70
2023/01/10 01:08:15;;;;;;;;;;;;;;;7.48;89.86;99108.47;5383188;32;33190;-87
2023/01/10 01:11:17;;;;;;;;;;;;;;;7.64;89.70;99105.97;5382427;32;43282;-87
2023/01/10 01:14:19;;;;;;;;;;;;;;;8.37;87.40;99105.03;5377061;32;962301;-70
2023/01/10 01:17:21;;;;;;;;;;;;;;;7.87;87.87;99101.34;5383350;32;33903;-87
2023/01/10 01:20:23;;;;;;;;;;;;;;;7.57;88.81;99100.19;5398418;32;33020;-87
2023/01/10 01:23:25;;;;;;;;;;;;;;;7.76;87.79;99097.56;5383243;32;33259;-88
2023/01/10 01:26:27;;;;;;;;;;;;;;;7.54;88.54;99095.97;5392815;32;34343;-71
2023/01/10 01:29:28;;;;;;;;;;;;;;;7.72;88.02;99099.44;5387038;32;34138;-70
2023/01/10 01:32:43;;;;;;;;;;;;;;;8.15;86.82;99095.59;5384649;32;33695;-92
2023/01/10 01:35:46;;;;;;;;;;;;;;;8.35;85.43;99096.38;5391983;32;33355;-88
2023/01/10 01:38:48;;;;;;;;;;;;;;;8.18;84.23;99098.97;5384220;32;44825;-69
2023/01/10 01:41:56;;;;;;;;;;;;;;;7.91;86.11;99094.19;5395402;32;33649;-71
2023/01/10 01:45:21;;;;;;;;;;;;;;;7.58;88.80;99091.41;5384001;32;33609;-91
2023/01/10 01:48:26;;;;;;;;;;;;;;;8.09;84.73;99095.06;5378032;32;45215;-81
2023/01/10 01:51:28;;;;;;;;;;;;;;;7.75;87.94;99096.72;5378296;32;33721;-70
2023/01/10 01:54:30;;;;;;;;;;;;;;;7.68;88.51;99089.22;5382612;32;33601;-70
2023/01/10 01:57:32;;;;;;;;;;;;;;;8.01;86.08;99091.97;5394675;32;33519;-71
2023/01/10 02:00:34;;;;;;;;;;;;;;;7.93;87.98;99094.13;5383594;32;33620;-89
2023/01/10 02:03:36;;;;;;;;;;;;;;;7.82;87.70;99102.50;5391893;32;33568;-88
2023/01/10 02:06:38;;;;;;;;;;;;;;;8.17;87.85;99102.53;5390617;32;33705;-70
2023/01/10 02:09:41;;;;;;;;;;;;;;;8.11;86.88;99109.78;5383759;32;33706;-87
2023/01/10 02:12:44;;;;;;;;;;;;;;;7.94;85.23;99122.81;5395497;32;33763;-70
2023/01/10 02:15:46;;;;;;;;;;;;;;;7.88;87.33;99117.87;5374965;32;34106;-70
2023/01/10 02:18:47;;;;;;;;;;;;;;;7.97;89.18;99114.81;5397425;32;45228;-69
2023/01/10 02:21:49;;;;;;;;;;;;;;;8.02;87.54;99123.28;5383159;32;34179;-89
2023/01/10 02:25:00;;;;;;;;;;;;;;;8.27;87.54;99124.72;5392113;32;34172;-88
2023/01/10 02:28:21;;;;;;;;;;;;;;;8.60;85.66;99124.81;5390056;32;34345;-90
2023/01/10 02:31:33;;;;;;;;;;;;;;;8.87;82.69;99118.16;5370655;32;45524;-90
2023/01/10 02:34:45;;;;;;;;;;;;;;;8.59;83.97;99116.13;5391862;32;33117;-71
2023/01/10 02:38:20;;;;;;;;;;;;;;;8.56;82.71;99107.56;5366086;32;46560;-90
2023/01/10 02:41:27;;;;;;;;;;;;;;;8.08;85.32;99107.28;5357773;32;45870;-87
2023/01/10 02:44:29;;;;;;;;;;;;;;;8.49;84.96;99112.25;5388707;32;34793;-86
2023/01/10 02:47:37;;;;;;;;;;;;;;;8.36;86.77;99111.19;5401953;32;34126;-71
2023/01/10 02:50:43;;;;;;;;;;;;;;;7.77;87.80;99102.69;5382837;32;34409;-70
2023/01/10 02:53:49;;;;;;;;;;;;;;;7.82;88.89;99105.09;5383952;32;33872;-71
2023/01/10 02:57:00;;;;;;;;;;;;;;;8.59;86.55;99105.62;5384250;32;44996;-71
2023/01/10 03:00:23;;;;;;;;;;;;;;;8.18;86.50;99114.69;5413213;32;34342;-71
2023/01/10 03:03:32;;;;;;;;;;;;;;;8.01;87.63;99115.53;5375204;32;44767;-71
2023/01/10 03:06:39;;;;;;;;;;;;;;;8.43;86.68;99116.97;5398099;32;33113;-88
2023/01/10 03:09:47;;;;;;;;;;;;;;;7.66;88.61;99120.66;5383462;32;33476;-88
2023/01/10 03:12:51;;;;;;;;;;;;;;;7.64;89.69;99124.28;5386196;32;45261;-89
2023/01/10 03:15:53;;;;;;;;;;;;;;;8.54;86.70;99133.81;5386789;32;33516;-77
2023/01/10 03:19:10;;;;;;;;;;;;;;;8.49;84.83;99138.44;5376177;32;32878;-80
2023/01/10 03:22:12;;;;;;;;;;;;;;;8.94;83.74;99131.78;5395762;32;33283;-90
2023/01/10 03:25:14;;;;;;;;;;;;;;;8.40;85.98;99134.53;5399016;32;33379;-70
2023/01/10 03:28:21;;;;;;;;;;;;;;;8.49;84.67;99141.06;5397983;32;36621;-87
2023/01/10 03:31:43;;;;;;;;;;;;;;;8.61;84.88;99132.59;5382265;32;34138;-77
2023/01/10 03:34:45;;;;;;;;;;;;;;;8.74;84.12;99135.44;5384396;32;33763;-70
2023/01/10 03:37:53;;;;;;;;;;;;;;;8.88;82.73;99137.34;5402127;32;44681;-88
2023/01/10 03:40:54;;;;;;;;;;;;;;;9.35;81.41;99134.84;5384200;32;33622;-78
2023/01/10 03:47:29;;;;;;;;;;;;;;;8.80;81.66;99132.50;5385668;32;34055;-70
2023/01/10 03:50:31;;;;;;;;;;;;;;;9.00;80.83;99146.34;5380304;32;33815;-70
2023/01/10 03:53:33;;;;;;;;;;;;;;;8.11;86.05;99141.19;5367991;32;34048;-70
2023/01/10 03:56:45;;;;;;;;;;;;;;;8.07;87.75;99142.25;5373113;32;33715;-89
2023/01/10 03:59:47;;;;;;;;;;;;;;;8.27;86.72;99153.50;5382799;32;46439;-88
2023/01/10 04:02:49;;;;;;;;;;;;;;;8.68;83.60;99154.91;5383758;32;33210;-70
2023/01/10 04:05:51;;;;;;;;;;;;;;;9.01;81.81;99154.09;5383171;32;33863;-70
2023/01/10 04:08:53;;;;;;;;;;;;;;;8.63;83.26;99169.16;5394514;32;33873;-89
2023/01/10 04:11:55;;;;;;;;;;;;;;;8.68;83.47;99167.19;5383564;32;33484;-71
2023/01/10 04:14:57;;;;;;;;;;;;;;;8.54;83.97;99175.72;5397245;32;34088;-88
2023/01/10 04:17:59;;;;;;;;;;;;;;;8.55;83.40;99161.72;5382754;32;34305;-70
2023/01/10 04:21:00;;;;;;;;;;;;;;;7.92;86.06;99145.63;5395122;32;33428;-90
2023/01/10 04:24:02;;;;;;;;;;;;;;;8.04;87.40;99134.53;5384962;32;33700;-70
2023/01/10 04:27:04;;;;;;;;;;;;;;;7.62;88.05;99149.66;5386804;32;34035;-88
2023/01/10 04:30:07;;;;;;;;;;;;;;;8.24;87.07;99151.03;5395953;32;34425;-71
2023/01/10 04:33:10;;;;;;;;;;;;;;;7.85;88.13;99159.88;5384540;32;34250;-81
2023/01/10 04:36:12;;;;;;;;;;;;;;;8.59;84.86;99144.09;5391376;32;33687;-70
2023/01/10 04:39:14;;;;;;;;;;;;;;;8.13;87.09;99141.09;5378551;32;34327;-70
2023/01/10 04:42:16;;;;;;;;;;;;;;;8.11;86.00;99154.28;5381332;32;45162;-88
2023/01/10 04:45:20;;;;;;;;;;;;;;;8.13;87.69;99154.19;5382278;32;35202;-70
2023/01/10 04:48:22;;;;;;;;;;;;;;;7.73;87.98;99158.72;5386688;32;34347;-87
2023/01/10 04:51:24;;;;;;;;;;;;;;;7.93;88.60;99170.84;5381566;32;35663;-89
2023/01/10 04:54:26;;;;;;;;;;;;;;;8.12;87.07;99174.28;5385002;32;33891;-79
2023/01/10 04:57:28;;;;;;;;;;;;;;;7.45;91.97;99185.25;5392033;32;33549;-71
2023/01/10 05:00:30;;;;;;;;;;;;;;;7.40;89.49;99192.47;5383995;32;34622;-71
2023/01/10 05:03:32;;;;;;;;;;;;;;;7.49;92.70;99194.69;5396113;32;33171;-70
2023/01/10 05:06:34;;;;;;;;;;;;;;;7.43;92.68;99194.94;5386230;32;34781;-87
2023/01/10 05:09:36;;;;;;;;;;;;;;;8.10;90.08;99204.03;5385053;32;33254;-91
2023/01/10 05:12:38;;;;;;;;;;;;;;;7.61;92.51;99214.19;5396488;32;33280;-89
2023/01/10 05:15:40;;;;;;;;;;;;;;;8.62;87.49;99214.63;5379699;32;33974;-88
2023/01/10 05:18:42;;;;;;;;;;;;;;;7.99;87.60;99212.41;5397944;32;33308;-89
2023/01/10 05:21:44;;;;;;;;;;;;;;;7.36;91.91;99227.50;5382856;32;33258;-70
2023/01/10 05:24:46;;;;;;;;;;;;;;;8.01;90.69;99225.44;5395160;32;33573;-69
2023/01/10 05:27:48;;;;;;;;;;;;;;;7.43;91.67;99235.94;5383369;32;45134;-87
2023/01/10 05:30:49;;;;;;;;;;;;;;;7.49;92.13;99239.13;5382321;32;34058;-89
2023/01/10 05:33:51;;;;;;;;;;;;;;;7.73;89.71;99241.53;5399151;32;34093;-70
2023/01/10 05:36:53;;;;;;;;;;;;;;;8.35;86.44;99240.38;5370423;32;32998;-70
2023/01/10 05:39:55;;;;;;;;;;;;;;;7.62;90.11;99247.25;5395116;32;31337;-70
2023/01/10 05:42:57;;;;;;;;;;;;;;;7.90;88.88;99233.75;5383639;32;35297;-90
2023/01/10 05:45:59;;;;;;;;;;;;;;;8.05;89.88;99237.44;5395961;32;34145;-70
2023/01/10 05:49:01;;;;;;;;;;;;;;;8.13;89.76;99220.47;5388902;32;34710;-91
2023/01/10 05:52:03;;;;;;;;;;;;;;;7.83;89.01;99229.75;5359686;32;34126;-70
2023/01/10 05:55:05;;;;;;;;;;;;;;;8.64;86.28;99239.84;5401104;32;33755;-69
2023/01/10 05:58:09;;;;;;;;;;;;;;;8.49;84.87;99252.81;5381971;32;33739;-71
2023/01/10 06:01:11;;;;;;;;;;;;;;;7.85;85.67;99254.06;5398484;32;34454;-89
2023/01/10 06:04:14;;;;;;;;;;;;;;;8.21;85.49;99261.13;5381863;32;31787;-78
2023/01/10 06:07:15;;;;;;;;;;;;;;;7.54;87.35;99265.06;5396024;32;33726;-70
2023/01/10 06:10:17;;;;;;;;;;;;;;;7.52;88.81;99267.72;5382797;32;43149;-71
2023/01/10 06:13:19;;;;;;;;;;;;;;;8.48;85.08;99270.31;5380882;32;35193;-70
2023/01/10 06:16:21;;;;;;;;;;;;;;;8.00;87.21;99283.91;5393895;32;33475;-89
2023/01/10 06:19:23;;;;;;;;;;;;;;;8.18;84.93;99287.44;5381181;32;33672;-69
2023/01/10 06:22:26;;;;;;;;;;;;;;;7.91;85.59;99294.78;5389638;32;36025;-71
2023/01/10 06:25:29;;;;;;;;;;;;;;;7.17;86.74;99303.25;5391192;32;33338;-90
2023/01/10 06:28:30;;;;;;;;;;;;;;;6.97;91.04;99309.31;5398908;32;34059;-71
2023/01/10 06:31:33;;;;;;;;;;;;;;;7.42;85.26;99308.28;5392144;32;34286;-90
2023/01/10 06:34:35;;;;;;;;;;;;;;;7.22;88.14;99323.97;5379188;32;34207;-70
2023/01/10 06:37:37;;;;;;;;;;;;;;;7.56;84.44;99332.06;5390532;32;35115;-91
2023/01/10 06:40:40;;;;;;;;;;;;;;;7.13;85.86;99332.19;5379737;32;34161;-69
2023/01/10 06:43:44;;;;;;;;;;;;;;;7.18;88.11;99332.84;5400626;32;33712;-88
2023/01/10 06:46:46;;;;;;;;;;;;;;;6.76;88.04;99331.06;5383766;32;35585;-69
2023/01/10 06:49:48;;;;;;;;;;;;;;;7.20;86.91;99318.78;5396415;32;43669;-81
2023/01/10 06:53:00;;;;;;;;;;;;;;;6.83;88.42;99332.56;5374157;32;33098;-83
2023/01/10 06:56:04;;;;;;;;;;;;;;;7.44;85.72;99326.50;5393333;32;33396;-87
2023/01/10 06:59:07;;;;;;;;;;;;;;;7.19;86.65;99337.16;5393997;32;33018;-71
2023/01/10 07:02:10;;;;;;;;;;;;;;;7.27;87.35;99348.97;5389896;32;32303;-86
2023/01/10 07:05:12;;;;;;;;;;;;;;;7.22;88.43;99358.81;5404540;32;35011;-74
2023/01/10 07:08:14;;;;;;;;;;;;;;;7.40;87.03;99358.91;5386814;32;34537;-72
2023/01/10 07:11:16;;;;;;;;;;;;;;;6.67;87.19;99368.84;5394505;32;44687;-82
2023/01/10 07:14:18;;;;;;;;;;;;;;;7.27;87.36;99379.50;5396707;32;33081;-80
2023/01/10 07:17:20;;;;;;;;;;;;;;;7.23;84.99;99391.00;5389866;32;34285;-94
2023/01/10 07:20:22;;;;;;;;;;;;;;;7.39;85.33;99396.44;5409588;32;33282;-82
2023/01/10 07:23:25;;;;;;;;;;;;;;;6.71;87.59;99408.75;5367737;32;35212;-88
2023/01/10 07:26:28;;;;;;;;;;;;;;;6.92;87.03;99407.91;5403614;32;33458;-81
2023/01/10 07:29:30;;;;;;;;;;;;;;;7.10;86.15;99408.94;5388266;32;33044;-75
2023/01/10 07:32:32;;;;;;;;;;;;;;;7.30;84.97;99408.13;5393679;32;31683;-75
2023/01/10 07:35:35;;;;;;;;;;;;;;;7.00;86.92;99413.69;5395116;32;33051;-83
2023/01/10 07:38:37;;;;;;;;;;;;;;;7.66;85.02;99410.94;5385254;32;33068;-77
2023/01/10 07:41:39;;;;;;;;;;;;;;;7.95;83.32;99422.78;5398295;32;33230;-76
2023/01/10 07:44:41;;;;;;;;;;;;;;;7.93;80.73;99432.47;5374276;32;33095;-76
2023/01/10 07:47:43;;;;;;;;;;;;;;;6.82;84.39;99442.28;5401591;32;33036;-76
2023/01/10 07:50:46;;;;;;;;;;;;;;;7.21;85.02;99447.69;5363160;32;34427;-79
2023/01/10 07:53:48;;;;;;;;;;;;;;;6.56;86.68;99461.56;5374143;32;44295;-77
2023/01/10 07:56:52;;;;;;;;;;;;;;;6.72;86.09;99465.31;5398792;32;33453;-78
2023/01/10 07:59:54;;;;;;;;;;;;;;;6.65;85.82;99474.28;5384467;32;32866;-80
2023/01/10 08:02:56;;;;;;;;;;;;;;;6.86;84.59;99483.91;5402711;32;33007;-83
2023/01/10 08:06:05;;;;;;;;;;;;;;;6.68;85.90;99492.44;5396206;32;33046;-91
2023/01/10 08:09:07;;;;;;;;;;;;;;;6.69;84.11;99496.72;5404167;32;33134;-81
2023/01/10 08:12:09;;;;;;;;;;;;;;;6.62;85.39;99503.94;5375089;32;34234;-83
2023/01/10 08:15:11;;;;;;;;;;;;;;;6.57;84.57;99505.91;5402625;32;34485;-76
2023/01/10 08:18:13;;;;;;;;;;;;;;;6.79;84.74;99508.56;5401857;32;33227;-74
2023/01/10 08:21:15;;;;;;;;;;;;;;;6.15;87.21;99529.16;5386242;32;32973;-72
2023/01/10 08:24:17;;;;;;;;;;;;;;;6.42;87.62;99538.63;5401204;32;44665;-73
2023/01/10 08:27:19;;;;;;;;;;;;;;;6.23;87.68;99543.63;5373203;32;33212;-74
2023/01/10 08:30:21;;;;;;;;;;;;;;;6.71;86.69;99540.19;5398702;32;34794;-73
2023/01/10 08:33:24;;;;;;;;;;;;;;;6.43;87.61;99562.94;5391385;32;33071;-79
2023/01/10 08:36:27;;;;;;;;;;;;;;;7.19;84.76;99560.13;5382552;32;33075;-68
2023/01/10 08:39:30;;;;;;;;;;;;;;;7.14;83.74;99553.38;5391151;32;32861;-75
2023/01/10 08:42:33;;;;;;;;;;;;;;;6.84;83.61;99560.63;5394733;32;33085;-74
2023/01/10 08:45:36;;;;;;;;;;;;;;;6.77;84.74;99576.53;5392354;32;33252;-76
2023/01/10 08:48:38;;;;;;;;;;;;;;;6.77;85.97;99583.50;5372469;32;33265;-73
2023/01/10 08:51:40;;;;;;;;;;;;;;;6.90;85.45;99587.38;5373865;32;33000;-77
2023/01/10 08:54:42;;;;;;;;;;;;;;;6.68;84.26;99596.87;5397488;32;33543;-84
2023/01/10 08:57:44;;;;;;;;;;;;;;;6.57;84.89;99605.13;5364477;32;34609;-81
2023/01/10 09:00:48;;;;;;;;;;;;;;;6.02;86.21;99604.37;5376516;32;45068;-75
2023/01/10 09:03:50;;;;;;;;;;;;;;;6.49;86.60;99621.03;5380822;32;34425;-87
2023/01/10 09:06:53;;;;;;;;;;;;;;;6.26;85.73;99620.97;5399077;32;32969;-83
2023/01/10 09:09:55;;;;;;;;;;;;;;;6.40;85.80;99625.72;5389060;32;33501;-77
2023/01/10 09:13:00;;;;;;;;;;;;;;;6.65;85.66;99633.56;5392486;32;33406;-74
2023/01/10 09:16:03;;;;;;;;;;;;;;;6.87;83.64;99644.94;5394477;32;34290;-75
2023/01/10 09:19:05;;;;;;;;;;;;;;;6.43;84.12;99647.34;5384307;32;33597;-84
2023/01/10 09:22:08;;;;;;;;;;;;;;;6.64;83.94;99652.75;5381577;32;34285;-86
2023/01/10 09:25:10;;;;;;;;;;;;;;;5.99;85.96;99669.69;5379648;32;33100;-76
2023/01/10 09:28:12;;;;;;;;;;;;;;;6.17;84.76;99668.22;5391519;32;33060;-78
2023/01/10 09:31:14;;;;;;;;;;;;;;;6.06;85.55;99678.19;5381919;32;32833;-76
2023/01/10 09:34:16;;;;;;;;;;;;;;;6.66;83.69;99675.28;5383608;32;44854;-79
2023/01/10 09:37:18;;;;;;;;;;;;;;;6.34;82.87;99697.25;5398742;32;33183;-84
2023/01/10 09:40:24;;;;;;;;;;;;;;;6.13;84.13;99696.19;5380744;32;34168;-79
2023/01/10 09:43:44;;;;;;;;;;;;;;;6.27;83.63;99695.75;5393262;32;33550;-86
2023/01/10 09:46:58;;;;;;;;;;;;;;;6.44;82.65;99713.44;5380872;32;36467;-85
2023/01/10 09:50:19;;;;;;;;;;;;;;;6.36;83.06;99716.31;5397231;32;34236;-82
2023/01/10 09:53:23;;;;;;;;;;;;;;;6.21;82.96;99722.03;5393186;32;46411;-91
2023/01/10 09:56:26;;;;;;;;;;;;;;;5.65;84.07;99732.41;5385408;32;33009;-75
2023/01/10 09:59:34;;;;;;;;;;;;;;;6.03;83.55;99733.87;5386078;32;33982;-77
2023/01/10 10:02:38;;;;;;;;;;;;;;;6.35;81.26;99738.09;5389131;32;33114;-74
2023/01/10 10:05:43;;;;;;;;;;;;;;;6.08;82.20;99744.19;5395620;32;34442;-72
2023/01/10 10:08:46;;;;;;;;;;;;;;;5.99;82.82;99745.34;5385278;32;34839;-83
2023/01/10 10:11:57;;;;;;;;;;;;;;;5.88;83.55;99753.44;5378739;32;43467;-83
2023/01/10 10:15:02;;;;;;;;;;;;;;;6.43;80.92;99743.91;5382240;32;31436;-71
2023/01/10 10:18:04;;;;;;;;;;;;;;;6.29;81.56;99751.34;5362927;32;33078;-84
2023/01/10 10:21:16;;;;;;;;;;;;;;;6.39;81.88;99744.94;5391389;32;30881;-70
2023/01/10 10:24:34;;;;;;;;;;;;;;;6.51;80.29;99751.53;5380322;32;44556;-71
2023/01/10 10:27:46;;;;;;;;;;;;;;;6.34;80.85;99757.28;5370898;32;32865;-81
2023/01/10 10:31:13;;;;;;;;;;;;;;;6.26;79.84;99741.00;5373635;32;44602;-75
2023/01/10 10:34:48;;;;;;;;;;;;;;;6.06;81.59;99759.06;5371856;32;33012;-83
2023/01/10 10:37:51;;;;;;;;;;;;;;;6.55;79.32;99774.00;5341898;32;33563;-83
2023/01/10 10:40:53;;;;;;;;;;;;;;;6.29;79.79;99780.03;5384544;32;32927;-84
2023/01/10 10:43:55;;;;;;;;;;;;;;;6.20;80.33;99786.41;5363481;32;32927;-73
2023/01/10 10:46:58;;;;;;;;;;;;;;;5.78;81.96;99796.31;5403166;32;35736;-78
2023/01/10 10:50:14;;;;;;;;;;;;;;;6.18;80.42;99795.16;5369157;32;33689;-72
2023/01/10 10:53:18;;;;;;;;;;;;;;;6.18;79.41;99811.72;5379378;32;43454;-74
2023/01/10 10:56:20;;;;;;;;;;;;;;;6.06;80.47;99806.84;5377152;32;34412;-74
2023/01/10 10:59:22;;;;;;;;;;;;;;;6.03;80.53;99813.91;5386356;32;33190;-71
2023/01/10 11:02:31;;;;;;;;;;;;;;;6.51;78.55;99808.97;5392940;32;33913;-77
2023/01/10 11:05:41;;;;;;;;;;;;;;;6.11;80.35;99815.38;5375315;32;34053;-81
2023/01/10 11:08:44;;;;;;;;;;;;;;;6.70;78.33;99830.97;5398888;32;33545;-78
2023/01/10 11:11:49;;;;;;;;;;;;;;;6.41;79.47;99839.69;5383679;32;45505;-78
2023/01/10 11:14:52;;;;;;;;;;;;;;;5.97;80.68;99848.84;5374686;32;33066;-70
2023/01/10 11:18:03;;;;;;;;;;;;;;;6.36;79.87;99845.97;5388326;32;35196;-72
2023/01/10 11:21:05;;;;;;;;;;;;;;;5.77;82.22;99857.22;5369000;32;31808;-75
2023/01/10 11:24:31;;;;;;;;;;;;;;;6.05;81.45;99857.31;5392789;32;32879;-81
2023/01/10 11:27:35;;;;;;;;;;;;;;;6.19;80.06;99864.75;5382780;32;33634;-79
2023/01/10 11:30:37;;;;;;;;;;;;;;;6.36;81.03;99857.25;5374707;32;33398;-74
2023/01/10 11:33:39;;;;;;;;;;;;;;;6.26;79.60;99868.03;5382279;32;33230;-76
2023/01/10 11:37:00;;;;;;;;;;;;;;;6.47;80.72;99865.63;5381599;32;32943;-83
2023/01/10 11:40:26;;;;;;;;;;;;;;;5.90;80.99;99881.19;5388990;32;33150;-80
2023/01/10 11:43:35;;;;;;;;;;;;;;;6.38;79.90;99868.53;5376145;32;34288;-83
2023/01/10 11:46:38;;;;;;;;;;;;;;;6.71;78.91;99873.59;5391170;32;35121;-80
2023/01/10 11:49:42;;;;;;;;;;;;;;;6.13;80.83;99881.44;5388527;32;32883;-79
2023/01/10 11:52:44;;;;;;;;;;;;;;;6.36;80.99;99872.06;5369636;32;31748;-79
2023/01/10 11:55:46;;;;;;;;;;;;;;;6.70;79.62;99879.75;5371482;32;44749;-80
2023/01/10 11:58:48;;;;;;;;;;;;;;;6.61;80.31;99882.62;5386689;32;31897;-87
2023/01/10 12:02:09;;;;;;;;;;;;;;;7.14;78.89;99882.66;5396702;32;34372;-77
2023/01/10 12:05:18;;;;;;;;;;;;;;;6.64;78.45;99900.81;5388585;32;34593;-82
2023/01/10 12:08:25;;;;;;;;;;;;;;;6.22;81.31;99894.22;5359614;32;45496;-81
2023/01/10 12:11:31;;;;;;;;;;;;;;;6.89;79.63;99900.88;5389209;32;34265;-81
2023/01/10 12:14:33;;;;;;;;;;;;;;;6.89;78.07;99903.50;5373525;32;33010;-81
2023/01/10 12:17:35;;;;;;;;;;;;;;;6.24;81.71;99915.03;5397601;32;34513;-73
2023/01/10 12:20:43;;;;;;;;;;;;;;;6.97;79.14;99915.44;5363086;32;37128;-72
2023/01/10 12:23:46;;;;;;;;;;;;;;;6.40;79.80;99911.09;5376376;32;33310;-81
2023/01/10 12:26:50;;;;;;;;;;;;;;;6.59;80.65;99907.94;5385462;32;44477;-78
2023/01/10 12:29:57;;;;;;;;;;;;;;;6.64;79.69;99909.50;5387031;32;33038;-84
2023/01/10 12:33:00;;;;;;;;;;;;;;;6.45;81.20;99927.47;5385462;32;34130;-77
2023/01/10 12:36:20;;;;;;;;;;;;;;;6.58;81.51;99937.56;5372735;32;32048;-71
2023/01/10 12:39:29;;;;;;;;;;;;;;;7.16;77.88;99939.22;5384845;32;45255;-71
2023/01/10 12:45:55;;;;;;;;;;;;;;;7.24;77.02;99947.66;5375974;32;44294;-74
2023/01/10 12:49:01;;;;;;;;;;;;;;;7.29;77.87;99968.44;5373051;32;33859;-76
2023/01/10 12:52:04;;;;;;;;;;;;;;;6.31;80.99;99968.78;5365489;32;32981;-75
2023/01/10 12:55:15;;;;;;;;;;;;;;;6.75;80.31;99975.31;5376743;32;34749;-74
2023/01/10 12:58:35;;;;;;;;;;;;;;;6.47;80.45;99980.50;5365125;32;44054;-72
2023/01/10 13:01:39;;;;;;;;;;;;;;;6.36;81.14;99973.84;5360717;32;33089;-73
2023/01/10 13:04:41;;;;;;;;;;;;;;;6.39;81.04;99976.41;5362846;32;33059;-81
2023/01/10 13:07:43;;;;;;;;;;;;;;;6.90;80.89;99983.59;5372167;32;34801;-78
2023/01/10 13:10:46;;;;;;;;;;;;;;;7.03;79.63;99980.56;5384578;32;33212;-76
2023/01/10 13:13:50;;;;;;;;;;;;;;;6.94;79.52;99993.87;5379659;32;43740;-76
2023/01/10 13:17:22;;;;;;;;;;;;;;;6.43;80.25;99991.91;5382668;32;34284;-73
2023/01/10 13:20:25;;;;;;;;;;;;;;;6.83;79.27;100006.44;5374857;32;44810;-82
2023/01/10 13:23:29;;;;;;;;;;;;;;;6.93;78.83;100000.03;5376122;32;35148;-74
2023/01/10 13:26:54;;;;;;;;;;;;;;;7.16;78.44;100007.16;5394611;32;34768;-85
2023/01/10 13:29:56;;;;;;;;;;;;;;;6.65;78.86;100015.66;5383757;32;44601;-77
2023/01/10 13:32:59;;;;;;;;;;;;;;;7.33;76.57;100014.47;5374804;32;33838;-80
2023/01/10 13:36:11;;;;;;;;;;;;;;;6.86;78.41;100027.25;5395706;32;34457;-74
2023/01/10 13:39:23;;;;;;;;;;;;;;;7.32;76.70;100033.69;5373927;32;36204;-73
2023/01/10 13:46:06;;;;;;;;;;;;;;;6.53;78.22;100043.87;5367095;32;44398;-73
2023/01/10 13:49:08;;;;;;;;;;;;;;;6.72;78.66;100058.13;5360087;32;30522;-72
2023/01/10 13:52:27;;;;;;;;;;;;;;;7.25;76.66;100067.00;5363123;32;33674;-78
2023/01/10 13:55:33;;;;;;;;;;;;;;;6.91;77.82;100064.53;5370138;32;33053;-77
2023/01/10 14:05:21;;;;;;;;;;;;;;;7.17;76.34;100082.06;5373776;32;44865;-72
2023/01/10 14:08:23;;;;;;;;;;;;;;;6.76;76.62;100080.63;5364904;32;32981;-77
2023/01/10 14:11:26;;;;;;;;;;;;;;;7.08;75.56;100082.31;5360014;32;33674;-78
2023/01/10 14:14:32;;;;;;;;;;;;;;;7.14;76.62;100082.13;5374822;32;33109;-75
2023/01/10 14:17:34;;;;;;;;;;;;;;;7.05;76.00;100088.50;5370942;32;32890;-72
2023/01/10 14:20:37;;;;;;;;;;;;;;;7.07;76.39;100097.16;5374840;32;32937;-88
2023/01/10 14:23:40;;;;;;;;;;;;;;;7.40;74.98;100109.25;5371664;32;33588;-74
2023/01/10 14:26:43;;;;;;;;;;;;;;;7.23;76.35;100112.38;5361735;32;33382;-77
2023/01/10 14:29:57;;;;;;;;;;;;;;;7.42;76.20;100110.94;5364719;32;31793;-82
2023/01/10 14:33:07;;;;;;;;;;;;;;;7.18;74.97;100115.13;5372406;32;32026;-80
2023/01/10 14:36:13;;;;;;;;;;;;;;;7.31;76.14;100128.69;5363352;32;34694;-79
2023/01/10 14:39:15;;;;;;;;;;;;;;;7.20;75.87;100138.59;5374003;32;34625;-76
2023/01/10 14:42:17;;;;;;;;;;;;;;;6.97;76.51;100147.97;5372151;32;44870;-86
2023/01/10 14:45:22;;;;;;;;;;;;;;;7.10;74.99;100145.03;5395349;32;33928;-77
2023/01/10 14:48:32;;;;;;;;;;;;;;;7.42;74.93;100160.62;5379032;32;36342;-77
2023/01/10 14:51:34;;;;;;;;;;;;;;;7.39;75.20;100160.69;5382001;32;34609;-80
2023/01/10 14:54:36;;;;;;;;;;;;;;;6.82;76.06;100173.66;5381151;32;32838;-76
2023/01/10 14:57:37;;;;;;;;;;;;;;;7.24;74.39;100176.84;5387233;32;33495;-72
2023/01/10 15:00:42;;;;;;;;;;;;;;;6.61;76.79;100160.28;5382345;32;33174;-75
2023/01/10 15:03:45;;;;;;;;;;;;;;;6.75;76.77;100178.19;5356170;32;34298;-76
2023/01/10 15:06:50;;;;;;;;;;;;;;;7.06;76.25;100178.22;5390818;32;44689;-70
2023/01/10 15:09:55;;;;;;;;;;;;;;;6.69;75.90;100179.19;5375134;32;34442;-74
2023/01/10 15:12:58;;;;;;;;;;;;;;;7.44;74.31;100191.94;5384657;32;33428;-74
2023/01/10 15:16:01;;;;;;;;;;;;;;;6.91;75.65;100196.94;5367333;32;34115;-71
2023/01/10 15:19:03;;;;;;;;;;;;;;;7.36;74.11;100196.53;5373283;32;33409;-74
2023/01/10 15:22:15;;;;;;;;;;;;;;;7.33;73.60;100197.47;5387595;32;33147;-71
2023/01/10 15:25:17;;;;;;;;;;;;;;;7.37;73.63;100203.47;5358396;32;43874;-70
2023/01/10 15:28:19;;;;;;;;;;;;;;;7.35;73.08;100207.91;5380267;32;35137;-72
2023/01/10 15:31:21;;;;;;;;;;;;;;;7.27;74.48;100215.94;5369378;32;34229;-75
2023/01/10 15:34:25;;;;;;;;;;;;;;;7.23;73.63;100219.56;5379562;32;33417;-74
2023/01/10 15:37:33;;;;;;;;;;;;;;;7.18;74.82;100219.69;5376902;32;33172;-73
2023/01/10 15:40:36;;;;;;;;;;;;;;;6.64;76.17;100232.47;5364804;32;34571;-74
2023/01/10 15:43:39;;;;;;;;;;;;;;;6.80;76.09;100239.00;5390833;32;33466;-70
2023/01/10 15:46:52;;;;;;;;;;;;;;;6.97;76.06;100242.03;5379811;32;33732;-75
2023/01/10 15:49:54;;;;;;;;;;;;;;;7.18;75.32;100251.06;5392446;32;44831;-69
2023/01/10 15:53:00;;;;;;;;;;;;;;;7.31;75.38;100257.66;5360355;32;33581;-71
2023/01/10 15:56:12;;;;;;;;;;;;;;;6.97;74.77;100257.72;5382149;32;34383;-74
2023/01/10 15:59:26;;;;;;;;;;;;;;;6.70;76.61;100258.44;5394167;32;33862;-74
2023/01/10 16:02:29;;;;;;;;;;;;;;;6.50;76.10;100256.28;5377484;32;33638;-71
2023/01/10 16:05:31;;;;;;;;;;;;;;;6.59;76.48;100269.12;5396605;32;33903;-71
2023/01/10 16:08:34;;;;;;;;;;;;;;;6.41;77.13;100266.97;5379797;32;33862;-71
2023/01/10 16:15:25;;;;;;;;;;;;;;;6.91;74.97;100280.53;5398776;32;33802;-74
2023/01/10 16:18:27;;;;;;;;;;;;;;;6.64;77.20;100274.25;5380440;32;33500;-75
2023/01/10 16:21:38;;;;;;;;;;;;;;;6.87;76.16;100287.59;5399197;32;34461;-73
2023/01/10 16:24:40;;;;;;;;;;;;;;;6.58;75.65;100290.06;5383604;32;34198;-70
2023/01/10 16:27:42;;;;;;;;;;;;;;;7.14;73.32;100290.38;5384191;32;33254;-71
2023/01/10 16:30:45;;;;;;;;;;;;;;;6.94;74.94;100288.28;5392795;32;34507;-75
2023/01/10 16:33:48;;;;;;;;;;;;;;;7.27;72.81;100286.53;5380666;32;43721;-71